createdAt,value
2023-04-15T00:01:45.125Z,97359.63
2023-04-15T00:04:13.114Z,97366.69
2023-04-15T00:06:41.086Z,97360.97
2023-04-15T00:09:08.940Z,97359.63
2023-04-15T00:11:36.785Z,97361.44
2023-04-15T00:14:04.639Z,97355.41
2023-04-15T00:16:32.578Z,97357.38
2023-04-15T00:19:00.691Z,97352.47
2023-04-15T00:21:29.121Z,97357.81
2023-04-15T00:23:57.413Z,97354.19
2023-04-15T00:26:25.258Z,97346.31
2023-04-15T00:28:53.889Z,97348.59
2023-04-15T00:31:21.902Z,97340.19
2023-04-15T00:33:50.055Z,97346.00
2023-04-15T00:36:17.975Z,97330.88
2023-04-15T00:38:45.793Z,97346.22
2023-04-15T00:41:13.749Z,97335.00
2023-04-15T00:43:43.408Z,97331.91
2023-04-15T00:46:13.412Z,97331.59
2023-04-15T00:48:41.524Z,97330.22
2023-04-15T00:51:09.762Z,97326.66
2023-04-15T00:53:37.657Z,97335.19
2023-04-15T00:56:06.578Z,97325.66
2023-04-15T00:58:34.622Z,97329.06
2023-04-15T01:01:02.843Z,97320.44
2023-04-15T01:03:31.358Z,97327.13
2023-04-15T01:06:03.434Z,97321.22
2023-04-15T01:08:31.985Z,97328.59
2023-04-15T01:11:03.606Z,97318.16
2023-04-15T01:13:34.151Z,97329.28
2023-04-15T01:16:03.092Z,97327.09
2023-04-15T01:18:31.659Z,97317.88
2023-04-15T01:21:05.461Z,97314.56
2023-04-15T01:23:37.217Z,97318.31
2023-04-15T01:26:10.482Z,97309.69
2023-04-15T01:28:39.716Z,97305.50
2023-04-15T01:31:08.038Z,97306.56
2023-04-15T01:33:39.710Z,97309.34
2023-04-15T01:36:26.069Z,97301.50
2023-04-15T01:38:56.139Z,97297.44
2023-04-15T01:41:27.425Z,97296.47
2023-04-15T01:43:56.676Z,97294.41
2023-04-15T01:46:25.857Z,97293.66
2023-04-15T01:48:56.639Z,97304.44
2023-04-15T01:51:27.723Z,97302.28
2023-04-15T01:53:57.141Z,97298.44
2023-04-15T01:56:26.617Z,97301.16
2023-04-15T01:58:56.190Z,97307.50
2023-04-15T02:01:25.885Z,97311.72
2023-04-15T02:03:55.037Z,97298.00
2023-04-15T02:06:24.537Z,97306.97
2023-04-15T02:08:53.758Z,97303.88
2023-04-15T02:11:23.217Z,97314.66
2023-04-15T02:13:53.716Z,97316.03
2023-04-15T02:16:24.583Z,97312.41
2023-04-15T02:18:53.909Z,97314.84
2023-04-15T02:21:23.603Z,97329.16
2023-04-15T02:23:54.172Z,97316.34
2023-04-15T02:26:25.118Z,97313.06
2023-04-15T02:28:56.436Z,97319.41
2023-04-15T02:31:26.319Z,97317.81
2023-04-15T02:33:55.469Z,97312.94
2023-04-15T02:36:24.623Z,97306.22
2023-04-15T02:38:53.815Z,97317.53
2023-04-15T02:41:27.242Z,97304.50
2023-04-15T02:43:56.958Z,97310.88
2023-04-15T02:46:27.479Z,97302.00
2023-04-15T02:48:56.732Z,97314.44
2023-04-15T02:51:31.496Z,97321.34
2023-04-15T02:54:01.556Z,97314.22
2023-04-15T02:56:30.932Z,97309.34
2023-04-15T02:59:00.412Z,97311.31
2023-04-15T03:01:29.676Z,97314.84
2023-04-15T03:03:58.953Z,97310.41
2023-04-15T03:06:28.170Z,97314.03
2023-04-15T03:08:57.383Z,97317.13
2023-04-15T03:11:27.581Z,97312.22
2023-04-15T03:13:57.187Z,97319.25
2023-04-15T03:16:34.524Z,97320.03
2023-04-15T03:19:04.236Z,97320.59
2023-04-15T03:21:35.399Z,97317.91
2023-04-15T03:24:04.959Z,97321.09
2023-04-15T03:26:34.528Z,97332.53
2023-04-15T03:29:11.223Z,97327.56
2023-04-15T03:31:42.230Z,97340.72
2023-04-15T03:34:11.381Z,97320.41
2023-04-15T03:36:40.880Z,97335.25
2023-04-15T03:39:09.982Z,97323.97
2023-04-15T03:41:39.500Z,97336.81
2023-04-15T03:44:08.593Z,97332.28
2023-04-15T03:46:37.807Z,97335.88
2023-04-15T03:49:07.370Z,97330.03
2023-04-15T03:51:36.940Z,97334.00
2023-04-15T03:54:06.461Z,97343.28
2023-04-15T03:56:35.551Z,97333.09
2023-04-15T03:59:04.681Z,97334.25
2023-04-15T04:01:33.814Z,97334.13
2023-04-15T04:04:03.107Z,97330.81
2023-04-15T04:06:32.485Z,97329.69
2023-04-15T04:09:01.759Z,97328.66
2023-04-15T04:11:31.774Z,97322.75
2023-04-15T04:14:01.057Z,97329.22
2023-04-15T04:16:30.619Z,97341.28
2023-04-15T04:18:59.837Z,97341.81
2023-04-15T04:21:29.175Z,97338.19
2023-04-15T04:23:59.078Z,97339.00
2023-04-15T04:26:28.247Z,97344.16
2023-04-15T04:28:57.385Z,97332.09
2023-04-15T04:31:27.290Z,97338.56
2023-04-15T04:33:56.688Z,97332.75
2023-04-15T04:36:26.603Z,97329.47
2023-04-15T04:38:56.153Z,97337.75
2023-04-15T04:41:25.320Z,97350.59
2023-04-15T04:43:54.524Z,97347.78
2023-04-15T04:46:23.988Z,97348.53
2023-04-15T04:48:53.177Z,97351.88
2023-04-15T04:51:22.327Z,97352.63
2023-04-15T04:53:51.661Z,97349.69
2023-04-15T04:56:21.047Z,97359.69
2023-04-15T04:58:50.194Z,97359.81
2023-04-15T05:01:19.400Z,97355.81
2023-04-15T05:03:48.793Z,97363.66
2023-04-15T05:06:17.988Z,97370.84
2023-04-15T05:08:47.152Z,97370.94
2023-04-15T05:11:16.245Z,97373.88
2023-04-15T05:13:45.399Z,97378.56
2023-04-15T05:16:14.798Z,97386.47
2023-04-15T05:18:43.917Z,97380.22
2023-04-15T05:21:13.116Z,97381.94
2023-04-15T05:23:42.428Z,97382.47
2023-04-15T05:26:11.517Z,97382.47
2023-04-15T05:28:40.710Z,97386.28
2023-04-15T05:31:09.931Z,97394.44
2023-04-15T05:33:39.014Z,97391.38
2023-04-15T05:36:08.513Z,97391.22
2023-04-15T05:38:38.510Z,97398.75
2023-04-15T05:41:07.647Z,97396.94
2023-04-15T05:43:36.933Z,97393.63
2023-04-15T05:46:06.080Z,97402.91
2023-04-15T05:48:35.684Z,97406.50
2023-04-15T05:51:05.299Z,97407.06
2023-04-15T05:53:34.416Z,97404.66
2023-04-15T05:56:03.782Z,97407.16
2023-04-15T05:58:32.915Z,97403.31
2023-04-15T06:01:03.194Z,97408.78
2023-04-15T06:03:32.514Z,97407.28
2023-04-15T06:06:02.497Z,97408.78
2023-04-15T06:08:31.799Z,97403.63
2023-04-15T06:11:01.603Z,97409.69
2023-04-15T06:13:30.985Z,97416.59
2023-04-15T06:16:00.214Z,97425.91
2023-04-15T06:18:29.344Z,97419.88
2023-04-15T06:20:58.645Z,97416.59
2023-04-15T06:23:28.128Z,97424.44
2023-04-15T06:25:57.343Z,97422.06
2023-04-15T06:28:26.494Z,97430.69
2023-04-15T06:30:56.653Z,97440.78
2023-04-15T06:33:25.998Z,97433.88
2023-04-15T06:35:55.441Z,97430.97
2023-04-15T06:38:24.625Z,97429.56
2023-04-15T06:40:53.836Z,97441.47
2023-04-15T06:43:23.105Z,97439.84
2023-04-15T06:45:52.608Z,97434.81
2023-04-15T06:48:22.510Z,97438.59
2023-04-15T06:50:52.378Z,97444.50
2023-04-15T06:53:22.136Z,97440.41
2023-04-15T06:55:51.340Z,97438.75
2023-04-15T06:58:20.417Z,97444.66
2023-04-15T07:00:49.576Z,97440.94
2023-04-15T07:03:19.003Z,97442.50
2023-04-15T07:05:48.909Z,97445.41
2023-04-15T07:08:19.024Z,97445.59
2023-04-15T07:10:48.212Z,97454.84
2023-04-15T07:13:17.440Z,97455.78
2023-04-15T07:15:46.708Z,97461.09
2023-04-15T07:18:16.353Z,97464.22
2023-04-15T07:20:45.494Z,97466.69
2023-04-15T07:23:14.619Z,97472.66
2023-04-15T07:25:43.749Z,97483.03
2023-04-15T07:28:12.925Z,97480.16
2023-04-15T07:30:42.474Z,97476.72
2023-04-15T07:33:12.040Z,97483.53
2023-04-15T07:35:41.161Z,97487.75
2023-04-15T07:38:13.632Z,97480.53
2023-04-15T07:40:42.792Z,97498.81
2023-04-15T07:43:13.469Z,97490.75
2023-04-15T07:45:42.770Z,97492.16
2023-04-15T07:48:12.024Z,97504.84
2023-04-15T07:50:41.236Z,97505.31
2023-04-15T07:53:10.618Z,97491.00
2023-04-15T07:55:39.926Z,97514.53
2023-04-15T07:58:09.343Z,97518.06
2023-04-15T08:00:38.744Z,97509.34
2023-04-15T08:03:08.094Z,97511.41
2023-04-15T08:05:37.435Z,97510.50
2023-04-15T08:08:07.078Z,97520.88
2023-04-15T08:10:36.187Z,97515.59
2023-04-15T08:13:06.031Z,97518.69
2023-04-15T08:15:35.395Z,97516.06
2023-04-15T08:18:04.667Z,97527.44
2023-04-15T08:20:33.954Z,97524.41
2023-04-15T08:23:03.309Z,97522.59
2023-04-15T08:25:32.426Z,97522.59
2023-04-15T08:28:05.457Z,97530.63
2023-04-15T08:30:34.694Z,97527.69
2023-04-15T08:33:03.891Z,97536.94
2023-04-15T08:35:33.052Z,97536.25
2023-04-15T08:38:02.188Z,97538.69
2023-04-15T08:40:43.384Z,97540.97
2023-04-15T08:43:22.696Z,97545.13
2023-04-15T08:45:52.786Z,97547.97
2023-04-15T08:48:24.536Z,97548.50
2023-04-15T08:50:53.907Z,97552.63
2023-04-15T08:53:24.616Z,97552.44
2023-04-15T08:55:57.990Z,97551.91
2023-04-15T08:58:27.743Z,97560.91
2023-04-15T09:00:57.363Z,97567.34
2023-04-15T09:03:26.785Z,97563.97
2023-04-15T09:05:57.452Z,97563.06
2023-04-15T09:08:26.699Z,97561.00
2023-04-15T09:10:56.070Z,97569.44
2023-04-15T09:13:25.554Z,97561.50
2023-04-15T09:15:55.356Z,97567.94
2023-04-15T09:18:33.385Z,97569.59
2023-04-15T09:21:11.487Z,97575.63
2023-04-15T09:23:55.608Z,97578.50
2023-04-15T09:27:39.405Z,97580.22
2023-04-15T09:30:34.885Z,97574.50
2023-04-15T09:33:10.916Z,97578.34
2023-04-15T09:35:40.972Z,97580.53
2023-04-15T09:38:11.031Z,97573.06
2023-04-15T09:40:42.510Z,97576.59
2023-04-15T09:43:13.800Z,97579.94
2023-04-15T09:45:50.810Z,97576.72
2023-04-15T09:48:22.340Z,97584.22
2023-04-15T09:50:53.902Z,97575.34
2023-04-15T09:53:25.381Z,97578.75
2023-04-15T09:56:01.082Z,97578.44
2023-04-15T09:58:34.093Z,97583.03
2023-04-15T10:01:06.490Z,97579.94
2023-04-15T10:03:38.869Z,97586.41
2023-04-15T10:06:09.931Z,97588.84
2023-04-15T10:08:40.332Z,97585.16
2023-04-15T10:11:11.311Z,97583.44
2023-04-15T10:13:42.101Z,97587.44
2023-04-15T10:16:16.024Z,97585.38
2023-04-15T10:18:48.669Z,97588.56
2023-04-15T10:21:19.195Z,97584.84
2023-04-15T10:23:49.822Z,97589.03
2023-04-15T10:26:20.878Z,97584.25
2023-04-15T10:28:51.739Z,97599.66
2023-04-15T10:31:22.432Z,97607.16
2023-04-15T10:33:53.928Z,97610.22
2023-04-15T10:36:23.462Z,97608.75
2023-04-15T10:38:52.557Z,97607.41
2023-04-15T10:41:34.568Z,97605.44
2023-04-15T10:44:05.278Z,97608.66
2023-04-15T10:46:38.696Z,97608.75
2023-04-15T10:49:09.201Z,97616.94
2023-04-15T10:51:44.379Z,97614.09
2023-04-15T10:54:33.841Z,97610.78
2023-04-15T10:57:09.049Z,97609.41
2023-04-15T11:00:00.043Z,97622.81
2023-04-15T11:02:53.403Z,97618.88
2023-04-15T11:05:44.578Z,97615.28
2023-04-15T11:08:13.937Z,97625.25
2023-04-15T11:10:43.006Z,97623.13
2023-04-15T11:13:12.272Z,97621.97
2023-04-15T11:15:44.957Z,97629.13
2023-04-15T11:18:16.963Z,97628.69
2023-04-15T11:20:50.837Z,97625.69
2023-04-15T11:23:47.788Z,97631.84
2023-04-15T11:26:17.238Z,97649.16
2023-04-15T11:28:46.801Z,97630.84
2023-04-15T11:31:18.215Z,97640.03
2023-04-15T11:33:55.568Z,97637.78
2023-04-15T11:36:27.426Z,97639.28
2023-04-15T11:38:59.142Z,97638.22
2023-04-15T11:41:28.586Z,97638.03
2023-04-15T11:43:57.848Z,97654.06
2023-04-15T11:46:31.728Z,97633.22
2023-04-15T11:49:01.649Z,97654.50
2023-04-15T11:51:34.702Z,97644.50
2023-04-15T11:54:03.651Z,97633.69
2023-04-15T11:56:32.130Z,97655.97
2023-04-15T11:59:00.259Z,97654.72
2023-04-15T17:39:56.382Z,98009.34
2023-04-15T17:42:44.445Z,97998.78
2023-04-15T17:45:32.560Z,98014.97
2023-04-15T17:48:20.784Z,98014.34
2023-04-15T17:51:08.548Z,98015.78
2023-04-15T17:53:56.332Z,98013.75
2023-04-15T17:56:44.106Z,98021.13
2023-04-15T17:59:33.669Z,98021.63
2023-04-15T18:02:21.682Z,98023.91
2023-04-15T18:05:10.414Z,98020.69
2023-04-15T18:07:58.289Z,98028.22
2023-04-15T18:10:45.991Z,98038.16
2023-04-15T18:13:33.744Z,98048.94
2023-04-15T18:16:21.813Z,98044.47
2023-04-15T18:19:11.255Z,98047.94
2023-04-15T18:21:39.109Z,98056.97
2023-04-15T18:24:07.418Z,98057.75
2023-04-15T18:26:35.522Z,98060.50
2023-04-15T18:29:03.507Z,98067.25
2023-04-15T18:31:31.821Z,98070.34
2023-04-15T18:33:59.807Z,98074.16
2023-04-15T18:37:42.639Z,98090.53
2023-04-15T18:40:36.474Z,98090.41
2023-04-15T18:43:04.541Z,98094.25
2023-04-15T18:45:32.757Z,98105.81
2023-04-15T18:48:00.685Z,98107.41
2023-04-15T18:50:28.644Z,98114.81
2023-04-15T18:52:57.335Z,98111.44
2023-04-15T18:55:25.292Z,98114.63
2023-04-15T18:57:53.269Z,98122.31
2023-04-15T19:00:24.413Z,98128.44
2023-04-15T19:02:52.629Z,98135.03
2023-04-15T19:05:20.999Z,98141.44
2023-04-15T19:07:50.534Z,98144.16
2023-04-15T19:10:18.724Z,98147.25
2023-04-15T19:12:46.932Z,98144.31
2023-04-15T19:15:14.797Z,98147.88
2023-04-15T19:17:42.724Z,98156.69
2023-04-15T19:20:10.796Z,98158.00
2023-04-15T19:22:38.839Z,98161.66
2023-04-15T19:25:06.920Z,98160.22
2023-04-15T19:27:34.938Z,98154.28
2023-04-15T19:30:04.209Z,98161.03
2023-04-15T19:32:32.099Z,98159.59
2023-04-15T19:34:59.949Z,98167.13
2023-04-15T19:37:27.841Z,98181.09
2023-04-15T19:39:56.130Z,98174.34
2023-04-15T19:42:23.987Z,98189.28
2023-04-15T19:44:51.900Z,98187.19
2023-04-15T19:47:19.931Z,98189.44
2023-04-15T19:49:47.828Z,98190.09
2023-04-15T19:52:15.670Z,98195.22
2023-04-15T19:54:43.488Z,98201.50
2023-04-15T19:57:11.385Z,98208.06
2023-04-15T19:59:39.194Z,98206.97
2023-04-15T20:02:07.395Z,98200.84
2023-04-15T20:04:35.379Z,98210.97
2023-04-15T20:07:03.270Z,98213.53
2023-04-15T20:09:31.259Z,98219.47
2023-04-15T20:12:47.997Z,98206.78
2023-04-15T20:14:47.132Z,98210.97
2023-04-15T20:17:15.055Z,98209.84
2023-04-15T20:19:42.891Z,98220.75
2023-04-15T20:22:10.715Z,98215.44
2023-04-15T20:24:38.573Z,98218.66
2023-04-15T20:27:06.448Z,98219.31
2023-04-15T20:29:34.549Z,98221.72
2023-04-15T20:32:02.473Z,98225.59
2023-04-15T20:34:30.822Z,98223.16
2023-04-15T20:36:58.610Z,98224.78
2023-04-15T20:39:27.017Z,98228.47
2023-04-15T20:41:54.945Z,98230.22
2023-04-15T20:44:22.741Z,98229.56
2023-04-15T20:46:50.677Z,98236.50
2023-04-15T20:49:18.572Z,98233.91
2023-04-15T20:51:46.479Z,98242.44
2023-04-15T20:54:14.837Z,98241.97
2023-04-15T20:56:42.648Z,98248.03
2023-04-15T20:59:10.785Z,98245.97
2023-04-15T21:01:40.249Z,98260.56
2023-04-15T21:04:08.296Z,98265.69
2023-04-15T21:06:36.338Z,98264.41
2023-04-15T21:09:04.360Z,98261.06
2023-04-15T21:11:53.148Z,98256.84
2023-04-15T21:14:21.031Z,98264.88
2023-04-15T21:16:49.116Z,98264.06
2023-04-15T21:19:16.949Z,98271.63
2023-04-15T21:21:44.848Z,98271.63
2023-04-15T21:24:12.915Z,98278.53
2023-04-15T21:26:40.983Z,98283.19
2023-04-15T21:29:11.400Z,98284.13
2023-04-15T21:31:40.213Z,98287.34
2023-04-15T21:34:08.326Z,98289.59
2023-04-15T21:36:37.042Z,98297.78
2023-04-15T21:39:06.016Z,98308.72
2023-04-15T21:41:34.069Z,98306.44
2023-04-15T21:44:02.823Z,98302.28
2023-04-15T21:46:33.360Z,98301.78
2023-04-15T21:49:03.784Z,98286.88
2023-04-15T21:51:32.641Z,98304.88
2023-04-15T21:54:00.476Z,98305.97
2023-04-15T21:56:28.392Z,98303.25
2023-04-15T21:58:57.694Z,98298.59
2023-04-15T22:01:26.593Z,98320.13
2023-04-15T22:03:55.086Z,98309.53
2023-04-15T22:06:23.149Z,98311.91
2023-04-15T22:08:56.862Z,98322.19
2023-04-15T22:11:30.734Z,98327.31
2023-04-15T22:13:59.131Z,98329.28
2023-04-15T22:16:27.476Z,98331.81
2023-04-15T22:18:56.032Z,98330.72
2023-04-15T22:21:23.965Z,98332.97
2023-04-15T22:24:33.216Z,98337.63
2023-04-15T22:26:41.331Z,98335.50
2023-04-15T22:29:09.233Z,98352.38
2023-04-15T22:31:37.124Z,98348.84
2023-04-15T22:34:05.119Z,98358.34
2023-04-15T22:36:32.933Z,98366.69
2023-04-15T22:39:00.912Z,98366.47
2023-04-15T22:41:28.824Z,98354.47
2023-04-15T22:43:56.644Z,98355.44
2023-04-15T22:46:24.516Z,98384.00
2023-04-15T22:48:54.114Z,98365.50
2023-04-15T22:51:28.006Z,98371.78
2023-04-15T22:53:56.397Z,98374.19
2023-04-15T22:56:24.379Z,98369.38
2023-04-15T22:58:52.401Z,98372.88
2023-04-15T23:01:21.149Z,98371.78
2023-04-15T23:03:57.042Z,98382.53
2023-04-15T23:06:32.591Z,98382.22
2023-04-15T23:09:00.496Z,98387.34
2023-04-15T23:11:28.403Z,98389.41
2023-04-15T23:13:56.618Z,98401.44
2023-04-15T23:16:24.506Z,98393.25
2023-04-15T23:18:52.464Z,98401.94
2023-04-15T23:21:20.883Z,98399.38
2023-04-15T23:23:48.777Z,98399.69
2023-04-15T23:26:16.694Z,98399.38
2023-04-15T23:28:44.518Z,98392.63
2023-04-15T23:31:12.333Z,98392.16
2023-04-15T23:33:40.300Z,98390.38
2023-04-15T23:36:08.180Z,98395.38
2023-04-15T23:38:36.274Z,98391.19
2023-04-15T23:41:04.110Z,98400.47
2023-04-15T23:43:32.174Z,98406.28
2023-04-15T23:46:00.052Z,98405.94
2023-04-15T23:48:30.033Z,98419.56
2023-04-15T23:50:58.024Z,98414.59
2023-04-15T23:53:25.897Z,98411.72
2023-04-15T23:55:53.741Z,98408.97
2023-04-15T23:58:21.590Z,98408.81
